createdAt,value
2018-05-09T00:02:22.126Z,21.50
2018-05-09T00:04:48.345Z,21.50
2018-05-09T00:07:14.610Z,21.50
2018-05-09T00:09:41.696Z,21.50
2018-05-09T00:12:09.030Z,21.50
2018-05-09T00:14:35.254Z,21.50
2018-05-09T00:17:01.504Z,21.50
2018-05-09T00:19:28.380Z,21.50
2018-05-09T00:21:55.416Z,21.50
2018-05-09T00:24:21.658Z,21.50
2018-05-09T00:26:47.962Z,21.50
2018-05-09T00:29:14.181Z,21.50
2018-05-09T00:31:40.472Z,21.50
2018-05-09T00:34:06.745Z,21.50
2018-05-09T00:36:33.908Z,21.50
2018-05-09T00:39:00.128Z,21.50
2018-05-09T00:41:26.368Z,21.50
2018-05-09T00:43:52.611Z,21.50
2018-05-09T00:46:18.874Z,21.50
2018-05-09T00:48:45.739Z,21.50
2018-05-09T00:51:11.982Z,21.50
2018-05-09T00:53:38.217Z,21.50
2018-05-09T00:56:05.274Z,21.40
2018-05-09T00:58:32.315Z,21.40
2018-05-09T01:00:58.542Z,21.40
2018-05-09T01:03:24.800Z,21.50
2018-05-09T01:05:51.285Z,21.50
2018-05-09T01:08:17.531Z,21.40
2018-05-09T01:10:43.805Z,21.40
2018-05-09T01:13:10.057Z,21.40
2018-05-09T01:15:36.301Z,21.40
2018-05-09T01:18:02.513Z,21.40
2018-05-09T01:20:29.455Z,21.40
2018-05-09T01:22:56.132Z,21.40
2018-05-09T01:25:22.379Z,21.40
2018-05-09T01:27:48.620Z,21.40
2018-05-09T01:30:14.875Z,21.40
2018-05-09T01:32:41.810Z,21.40
2018-05-09T01:35:08.085Z,21.40
2018-05-09T01:37:34.335Z,21.40
2018-05-09T01:40:00.545Z,21.40
2018-05-09T01:42:26.768Z,21.40
2018-05-09T01:44:53.021Z,21.40
2018-05-09T01:47:20.008Z,21.40
2018-05-09T01:49:46.252Z,21.40
2018-05-09T01:52:12.508Z,21.30
2018-05-09T01:54:39.492Z,21.40
2018-05-09T01:57:05.732Z,21.40
2018-05-09T01:59:31.997Z,21.40
2018-05-09T02:01:58.212Z,21.40
2018-05-09T02:04:25.189Z,21.40
2018-05-09T02:06:51.405Z,21.40
2018-05-09T02:09:17.633Z,21.40
2018-05-09T02:11:43.879Z,21.40
2018-05-09T02:14:10.161Z,21.40
2018-05-09T02:16:36.385Z,21.40
2018-05-09T02:19:02.605Z,21.40
2018-05-09T02:21:28.820Z,21.40
2018-05-09T02:23:55.071Z,21.40
2018-05-09T02:26:21.329Z,21.30
2018-05-09T02:28:47.549Z,21.40
2018-05-09T02:31:13.860Z,21.40
2018-05-09T02:33:40.032Z,21.40
2018-05-09T02:36:06.334Z,21.40
2018-05-09T02:38:32.554Z,21.40
2018-05-09T02:40:58.785Z,21.40
2018-05-09T02:43:25.782Z,21.40
2018-05-09T02:45:51.994Z,21.40
2018-05-09T02:48:18.250Z,21.40
2018-05-09T02:50:44.469Z,21.40
2018-05-09T02:53:10.704Z,21.40
2018-05-09T02:55:36.925Z,21.40
2018-05-09T02:58:03.133Z,21.40
2018-05-09T03:00:29.402Z,21.40
2018-05-09T03:02:55.677Z,21.40
2018-05-09T03:05:22.202Z,21.40
2018-05-09T03:07:48.413Z,21.40
2018-05-09T03:10:14.642Z,21.30
2018-05-09T03:12:41.618Z,21.30
2018-05-09T03:15:07.848Z,21.30
2018-05-09T03:17:34.268Z,21.30
2018-05-09T03:20:00.516Z,21.30
2018-05-09T03:22:26.753Z,21.30
2018-05-09T03:24:53.024Z,21.30
2018-05-09T03:27:19.253Z,21.30
2018-05-09T03:29:45.585Z,21.30
2018-05-09T03:32:11.764Z,21.40
2018-05-09T03:34:38.004Z,21.30
2018-05-09T03:37:05.097Z,21.30
2018-05-09T03:39:31.324Z,21.30
2018-05-09T03:41:57.558Z,21.30
2018-05-09T03:44:23.808Z,21.30
2018-05-09T03:46:50.055Z,21.30
2018-05-09T03:49:16.329Z,21.30
2018-05-09T03:51:43.423Z,21.30
2018-05-09T03:54:10.373Z,21.30
2018-05-09T03:56:36.608Z,21.30
2018-05-09T03:59:02.862Z,21.30
2018-05-09T04:01:29.138Z,21.30
2018-05-09T04:03:56.624Z,21.30
2018-05-09T04:06:22.868Z,21.20
2018-05-09T04:08:49.130Z,21.30
2018-05-09T04:11:15.361Z,21.30
2018-05-09T04:13:41.625Z,21.20
2018-05-09T04:16:07.840Z,21.30
2018-05-09T04:18:34.069Z,21.30
2018-05-09T04:21:00.386Z,21.30
2018-05-09T04:23:26.617Z,21.30
2018-05-09T04:25:52.891Z,21.30
2018-05-09T04:28:19.172Z,21.30
2018-05-09T04:30:45.416Z,21.30
2018-05-09T04:33:11.681Z,21.30
2018-05-09T04:35:37.952Z,21.20
2018-05-09T04:38:04.252Z,21.20
2018-05-09T04:40:30.489Z,21.30
2018-05-09T04:42:56.748Z,21.20
2018-05-09T04:45:22.984Z,21.10
2018-05-09T04:47:49.241Z,21.00
2018-05-09T04:50:15.515Z,20.90
2018-05-09T04:52:41.749Z,21.00
2018-05-09T04:55:07.995Z,20.90
2018-05-09T04:57:34.283Z,20.90
2018-05-09T05:00:00.516Z,20.90
2018-05-09T05:02:26.795Z,20.90
2018-05-09T05:04:53.036Z,20.90
2018-05-09T05:07:19.257Z,20.90
2018-05-09T05:09:45.474Z,20.90
2018-05-09T05:12:11.698Z,20.80
2018-05-09T05:14:37.995Z,20.80
2018-05-09T05:17:04.208Z,20.80
2018-05-09T05:19:30.448Z,20.80
2018-05-09T05:21:56.673Z,20.90
2018-05-09T05:24:22.923Z,21.00
2018-05-09T05:26:49.179Z,21.00
2018-05-09T05:29:15.428Z,21.10
2018-05-09T05:31:41.879Z,21.10
2018-05-09T05:34:08.500Z,21.20
2018-05-09T05:36:34.748Z,21.20
2018-05-09T05:39:01.057Z,21.20
2018-05-09T05:41:27.306Z,21.20
2018-05-09T05:43:54.332Z,21.20
2018-05-09T05:46:20.573Z,21.20
2018-05-09T05:48:46.805Z,21.20
2018-05-09T05:51:13.366Z,21.20
2018-05-09T05:53:40.388Z,21.20
2018-05-09T05:56:06.721Z,21.20
2018-05-09T05:58:32.971Z,21.20
2018-05-09T06:00:59.189Z,21.20
2018-05-09T06:03:25.476Z,21.30
2018-05-09T06:05:51.681Z,21.20
2018-05-09T06:08:17.918Z,21.20
2018-05-09T06:10:44.157Z,21.30
2018-05-09T06:13:11.380Z,21.30
2018-05-09T06:15:37.745Z,21.30
2018-05-09T06:18:04.511Z,21.30
2018-05-09T06:20:30.765Z,21.30
2018-05-09T06:22:57.752Z,21.30
2018-05-09T06:25:24.725Z,21.30
2018-05-09T06:27:51.737Z,21.30
2018-05-09T06:30:17.959Z,21.40
2018-05-09T06:32:44.219Z,21.40
2018-05-09T06:35:10.474Z,21.40
2018-05-09T06:37:36.782Z,21.40
2018-05-09T06:40:02.994Z,21.40
2018-05-09T06:42:29.440Z,21.40
2018-05-09T06:44:55.678Z,21.40
2018-05-09T06:47:21.923Z,21.40
2018-05-09T06:49:48.669Z,21.40
2018-05-09T06:52:14.929Z,21.40
2018-05-09T06:54:41.167Z,21.40
2018-05-09T06:57:07.425Z,21.40
2018-05-09T06:59:33.650Z,21.40
2018-05-09T07:01:59.984Z,21.40
2018-05-09T07:04:26.273Z,21.40
2018-05-09T07:06:52.513Z,21.40
2018-05-09T07:09:18.741Z,21.40
2018-05-09T07:11:44.994Z,21.40
2018-05-09T07:14:11.236Z,21.40
2018-05-09T07:16:37.499Z,21.40
2018-05-09T07:19:03.750Z,21.50
2018-05-09T07:21:30.008Z,21.50
2018-05-09T07:23:57.209Z,21.50
2018-05-09T07:26:23.460Z,21.50
2018-05-09T07:28:49.735Z,21.50
2018-05-09T07:31:15.962Z,21.50
2018-05-09T07:33:42.204Z,21.50
2018-05-09T07:36:08.452Z,21.50
2018-05-09T07:38:34.697Z,21.50
2018-05-09T07:41:00.957Z,21.50
2018-05-09T07:43:27.182Z,21.50
2018-05-09T07:45:53.401Z,21.50
2018-05-09T07:48:19.625Z,21.50
2018-05-09T07:50:45.882Z,21.50
2018-05-09T07:53:12.157Z,21.50
2018-05-09T07:55:38.411Z,21.50
2018-05-09T07:58:04.657Z,21.50
2018-05-09T08:00:30.929Z,21.50
2018-05-09T08:02:57.196Z,21.50
2018-05-09T08:05:23.468Z,21.50
2018-05-09T08:10:22.421Z,21.50
2018-05-09T08:12:48.731Z,21.50
2018-05-09T08:15:14.951Z,21.50
2018-05-09T08:17:41.217Z,21.50
2018-05-09T08:20:07.445Z,21.50
2018-05-09T08:22:33.685Z,21.50
2018-05-09T08:25:00.168Z,21.50
2018-05-09T08:27:27.215Z,21.50
2018-05-09T08:29:54.276Z,21.50
2018-05-09T08:32:22.231Z,21.60
2018-05-09T08:34:48.471Z,21.50
2018-05-09T08:37:14.688Z,21.60
2018-05-09T08:39:40.940Z,21.60
2018-05-09T08:42:07.224Z,21.60
2018-05-09T08:44:33.472Z,21.60
2018-05-09T08:46:59.701Z,21.60
2018-05-09T08:49:26.048Z,21.60
2018-05-09T08:51:52.206Z,21.60
2018-05-09T08:54:18.498Z,21.60
2018-05-09T08:56:44.734Z,21.60
2018-05-09T08:59:11.702Z,21.60
2018-05-09T09:01:38.163Z,21.60
2018-05-09T09:04:04.414Z,21.60
2018-05-09T09:06:30.763Z,21.60
2018-05-09T09:08:57.365Z,21.60
2018-05-09T09:11:23.585Z,21.60
2018-05-09T09:13:49.818Z,21.60
2018-05-09T09:16:16.049Z,21.60
2018-05-09T09:18:42.365Z,21.60
2018-05-09T09:21:08.850Z,21.60
2018-05-09T09:23:35.096Z,21.60
2018-05-09T09:26:01.333Z,21.60
2018-05-09T09:28:27.556Z,21.60
2018-05-09T09:30:53.852Z,21.70
2018-05-09T09:33:20.373Z,21.70
2018-05-09T09:35:46.615Z,21.70
2018-05-09T09:38:12.838Z,21.70
2018-05-09T09:40:39.073Z,21.70
2018-05-09T09:43:05.360Z,21.70
2018-05-09T09:45:31.577Z,21.70
2018-05-09T09:47:57.797Z,21.70
2018-05-09T09:50:24.013Z,21.80
2018-05-09T09:52:51.009Z,21.80
2018-05-09T09:55:17.267Z,21.80
2018-05-09T09:57:43.509Z,21.80
2018-05-09T10:00:09.760Z,21.80
2018-05-09T10:02:35.988Z,21.80
2018-05-09T10:05:02.232Z,21.80
2018-05-09T10:07:28.494Z,21.90
2018-05-09T10:09:54.726Z,21.90
2018-05-09T10:12:20.965Z,21.90
2018-05-09T10:14:47.203Z,21.90
2018-05-09T10:17:13.427Z,21.90
2018-05-09T10:19:39.724Z,21.90
2018-05-09T10:22:05.963Z,21.90
2018-05-09T10:24:32.190Z,21.90
2018-05-09T10:26:58.418Z,22.00
2018-05-09T10:29:24.645Z,22.00
2018-05-09T10:31:50.890Z,22.00
2018-05-09T10:34:17.140Z,22.00
2018-05-09T10:36:43.384Z,22.00
2018-05-09T10:39:09.609Z,22.10
2018-05-09T10:41:35.841Z,22.10
2018-05-09T10:44:02.114Z,22.10
2018-05-09T10:46:28.333Z,22.10
2018-05-09T10:48:54.585Z,22.10
2018-05-09T10:51:20.819Z,22.20
2018-05-09T10:53:47.067Z,22.20
2018-05-09T10:56:13.395Z,22.20
2018-05-09T10:58:39.609Z,22.20
2018-05-09T11:01:05.868Z,22.30
2018-05-09T11:03:32.397Z,22.30
2018-05-09T11:05:58.607Z,22.30
2018-05-09T11:08:24.891Z,22.30
2018-05-09T11:10:51.991Z,22.30
2018-05-09T11:13:18.244Z,22.30
2018-05-09T11:15:44.854Z,22.40
2018-05-09T11:18:11.073Z,22.40
2018-05-09T11:20:37.315Z,22.40
2018-05-09T11:23:03.557Z,22.40
2018-05-09T11:25:29.820Z,22.50
2018-05-09T11:27:56.637Z,22.50
2018-05-09T11:30:22.866Z,22.50
2018-05-09T11:32:49.111Z,22.50
2018-05-09T11:35:15.507Z,22.50
2018-05-09T11:37:41.784Z,22.60
2018-05-09T11:40:08.006Z,22.60
2018-05-09T11:42:34.255Z,22.60
2018-05-09T11:45:00.476Z,22.60
2018-05-09T11:47:26.715Z,22.60
2018-05-09T11:49:52.995Z,22.70
2018-05-09T11:52:19.222Z,22.70
2018-05-09T11:54:46.236Z,22.70
2018-05-09T11:57:12.469Z,22.70
2018-05-09T11:59:38.712Z,22.70
2018-05-09T12:02:04.980Z,22.80
2018-05-09T12:04:31.967Z,22.80
2018-05-09T12:06:58.194Z,22.80
2018-05-09T12:09:24.422Z,22.80
2018-05-09T12:11:50.656Z,22.80
2018-05-09T12:14:17.128Z,22.80
2018-05-09T12:16:43.363Z,22.80
2018-05-09T12:19:09.600Z,22.90
2018-05-09T12:21:35.824Z,22.90
2018-05-09T12:24:02.046Z,22.90
2018-05-09T12:26:28.320Z,22.90
2018-05-09T12:28:54.560Z,22.90
2018-05-09T12:31:20.803Z,22.90
2018-05-09T12:33:47.025Z,23.00
2018-05-09T12:36:13.281Z,23.00
2018-05-09T12:38:40.329Z,23.00
2018-05-09T12:41:07.332Z,23.00
2018-05-09T12:43:33.574Z,23.00
2018-05-09T12:45:59.797Z,23.00
2018-05-09T12:48:26.024Z,23.10
2018-05-09T12:50:52.893Z,23.10
2018-05-09T12:53:19.141Z,23.10
2018-05-09T12:55:45.400Z,23.10
2018-05-09T12:58:11.626Z,23.10
2018-05-09T13:00:37.940Z,23.10
2018-05-09T13:03:04.192Z,23.10
2018-05-09T13:05:30.427Z,23.10
2018-05-09T13:07:56.668Z,23.10
2018-05-09T13:10:22.903Z,23.10
2018-05-09T13:12:49.151Z,23.20
2018-05-09T13:15:15.398Z,23.20
2018-05-09T13:17:42.380Z,23.10
2018-05-09T13:20:08.613Z,23.10
2018-05-09T13:22:34.828Z,23.20
2018-05-09T13:25:01.463Z,23.10
2018-05-09T13:27:29.230Z,23.20
2018-05-09T13:29:55.459Z,23.20
2018-05-09T13:32:21.678Z,23.10
2018-05-09T13:34:47.937Z,23.10
2018-05-09T13:37:14.453Z,23.10
2018-05-09T13:39:40.736Z,23.10
2018-05-09T13:42:06.956Z,23.00
2018-05-09T13:44:33.174Z,23.00
2018-05-09T13:46:59.425Z,23.00
2018-05-09T13:49:25.658Z,23.00
2018-05-09T13:51:51.928Z,23.00
2018-05-09T13:54:18.164Z,23.00
2018-05-09T13:56:44.467Z,23.00
2018-05-09T13:59:10.656Z,22.90
2018-05-09T14:01:36.879Z,22.90
2018-05-09T14:04:03.164Z,22.80
2018-05-09T14:06:29.389Z,22.80
2018-05-09T14:08:56.384Z,22.80
2018-05-09T14:11:22.623Z,22.80
2018-05-09T14:13:48.865Z,22.80
2018-05-09T14:16:15.139Z,22.70
2018-05-09T14:18:42.152Z,22.70
2018-05-09T14:21:08.374Z,22.70
2018-05-09T14:23:34.590Z,22.60
2018-05-09T14:26:00.810Z,22.70
2018-05-09T14:28:27.061Z,22.70
2018-05-09T14:30:53.281Z,22.60
2018-05-09T14:33:19.528Z,22.60
2018-05-09T14:35:45.768Z,22.60
2018-05-09T14:38:11.987Z,22.60
2018-05-09T14:40:38.743Z,22.60
2018-05-09T14:43:04.945Z,22.60
2018-05-09T14:45:31.176Z,22.60
2018-05-09T14:47:57.425Z,22.60
2018-05-09T14:50:23.649Z,22.60
2018-05-09T14:52:49.909Z,22.60
2018-05-09T14:55:16.337Z,22.60
2018-05-09T14:57:43.321Z,22.60
2018-05-09T15:00:09.542Z,22.60
2018-05-09T15:02:35.783Z,22.60
2018-05-09T15:05:02.066Z,22.60
2018-05-09T15:07:28.344Z,22.60
2018-05-09T15:09:54.588Z,22.60
2018-05-09T15:12:20.808Z,22.60
2018-05-09T15:14:47.046Z,22.60
2018-05-09T15:17:13.313Z,22.70
2018-05-09T15:19:39.564Z,22.70
2018-05-09T15:22:05.828Z,22.70
2018-05-09T15:24:32.068Z,22.70
2018-05-09T15:26:59.681Z,22.70
2018-05-09T15:29:25.965Z,22.70
2018-05-09T15:31:52.257Z,22.70
2018-05-09T15:34:18.486Z,22.70
2018-05-09T15:36:44.714Z,22.70
2018-05-09T15:39:10.983Z,22.80
2018-05-09T15:41:37.233Z,22.80
2018-05-09T15:44:04.224Z,22.80
2018-05-09T15:46:30.443Z,22.80
2018-05-09T15:48:56.687Z,22.80
2018-05-09T15:51:22.924Z,22.80
2018-05-09T15:53:49.996Z,22.80
2018-05-09T15:56:16.244Z,22.80
2018-05-09T15:58:43.062Z,22.80
2018-05-09T16:01:09.302Z,22.80
2018-05-09T16:03:35.722Z,22.80
2018-05-09T16:06:01.994Z,22.80
2018-05-09T16:08:28.239Z,22.80
2018-05-09T16:10:54.488Z,22.80
2018-05-09T16:13:20.709Z,22.70
2018-05-09T16:15:46.935Z,22.70
2018-05-09T16:18:13.212Z,22.70
2018-05-09T16:20:39.454Z,22.70
2018-05-09T16:23:05.685Z,22.70
2018-05-09T16:25:31.896Z,22.70
2018-05-09T16:27:58.861Z,22.70
2018-05-09T16:30:25.916Z,22.70
2018-05-09T16:32:53.513Z,22.70
2018-05-09T16:35:19.781Z,22.70
2018-05-09T16:37:46.019Z,22.70
2018-05-09T16:40:13.134Z,22.60
2018-05-09T16:42:39.385Z,22.70
2018-05-09T16:45:05.627Z,22.70
2018-05-09T16:47:31.867Z,22.60
2018-05-09T16:49:58.108Z,22.60
2018-05-09T16:52:24.470Z,22.60
2018-05-09T16:54:50.733Z,22.60
2018-05-09T16:57:16.973Z,22.60
2018-05-09T16:59:43.212Z,22.60
2018-05-09T17:02:10.219Z,22.60
2018-05-09T17:04:36.470Z,22.50
2018-05-09T17:07:02.736Z,22.60
2018-05-09T17:09:28.984Z,22.50
2018-05-09T17:11:55.244Z,22.50
2018-05-09T17:14:22.242Z,22.50
2018-05-09T17:16:48.494Z,22.50
2018-05-09T17:19:14.834Z,22.50
2018-05-09T17:21:41.342Z,22.50
2018-05-09T17:24:07.566Z,22.50
2018-05-09T17:26:33.792Z,22.50
2018-05-09T17:29:00.048Z,22.50
2018-05-09T17:31:26.302Z,22.40
2018-05-09T17:33:53.316Z,22.40
2018-05-09T17:36:19.545Z,22.40
2018-05-09T17:38:45.765Z,22.40
2018-05-09T17:41:11.994Z,22.40
2018-05-09T17:43:38.247Z,22.40
2018-05-09T17:46:04.487Z,22.40
2018-05-09T17:48:30.722Z,22.40
2018-05-09T17:50:56.984Z,22.40
2018-05-09T17:53:23.228Z,22.40
2018-05-09T17:55:49.485Z,22.40
2018-05-09T17:58:15.701Z,22.40
2018-05-09T18:00:41.949Z,22.30
2018-05-09T18:03:08.172Z,22.40
2018-05-09T18:05:35.169Z,22.40
2018-05-09T18:08:01.446Z,22.30
2018-05-09T18:10:27.674Z,22.30
2018-05-09T18:12:53.909Z,22.40
2018-05-09T18:15:20.152Z,22.30
2018-05-09T18:17:46.388Z,22.30
2018-05-09T18:20:12.645Z,22.30
2018-05-09T18:22:38.880Z,22.30
2018-05-09T18:25:05.445Z,22.30
2018-05-09T18:27:31.681Z,22.30
2018-05-09T18:29:58.406Z,22.30
2018-05-09T18:32:24.665Z,22.30
2018-05-09T18:34:50.913Z,22.30
2018-05-09T18:37:17.784Z,22.30
2018-05-09T18:39:44.326Z,22.30
2018-05-09T18:42:10.529Z,22.30
2018-05-09T18:44:37.427Z,22.30
2018-05-09T18:47:03.645Z,22.30
2018-05-09T18:49:29.915Z,22.20
2018-05-09T18:51:56.134Z,22.20
2018-05-09T18:54:22.365Z,22.20
2018-05-09T18:56:48.645Z,22.20
2018-05-09T18:59:15.000Z,22.20
2018-05-09T19:01:41.221Z,22.20
2018-05-09T19:04:07.442Z,22.20
2018-05-09T19:06:33.788Z,22.20
2018-05-09T19:09:00.267Z,22.20
2018-05-09T19:11:26.512Z,22.20
2018-05-09T19:13:52.734Z,22.20
2018-05-09T19:16:19.045Z,22.20
2018-05-09T19:18:45.201Z,22.20
2018-05-09T19:21:11.452Z,22.20
2018-05-09T19:23:37.684Z,22.10
2018-05-09T19:26:03.920Z,22.10
2018-05-09T19:28:30.183Z,22.10
2018-05-09T19:30:56.443Z,22.20
2018-05-09T19:33:22.704Z,22.10
2018-05-09T19:35:48.944Z,22.10
2018-05-09T19:38:15.191Z,22.10
2018-05-09T19:40:41.409Z,22.10
2018-05-09T19:43:07.634Z,22.10
2018-05-09T19:45:33.934Z,22.10
2018-05-09T19:48:00.175Z,22.10
2018-05-09T19:50:26.475Z,22.10
2018-05-09T19:52:52.653Z,22.10
2018-05-09T19:55:18.869Z,22.10
2018-05-09T19:57:45.112Z,22.10
2018-05-09T20:00:12.082Z,22.10
2018-05-09T20:02:38.305Z,22.10
2018-05-09T20:05:04.536Z,22.10
2018-05-09T20:07:30.789Z,22.10
2018-05-09T20:09:57.051Z,22.10
2018-05-09T20:12:23.892Z,22.10
2018-05-09T20:14:50.117Z,22.10
2018-05-09T20:17:16.441Z,22.10
2018-05-09T20:19:42.700Z,22.10
2018-05-09T20:22:08.953Z,22.10
2018-05-09T20:24:35.203Z,22.10
2018-05-09T20:27:02.227Z,22.10
2018-05-09T20:29:28.476Z,22.10
2018-05-09T20:31:54.689Z,22.00
2018-05-09T20:34:20.928Z,22.00
2018-05-09T20:36:47.885Z,22.00
2018-05-09T20:39:14.161Z,22.00
2018-05-09T20:41:40.381Z,22.00
2018-05-09T20:44:06.601Z,22.00
2018-05-09T20:46:32.820Z,22.10
2018-05-09T20:48:59.046Z,22.00
2018-05-09T20:51:25.337Z,22.00
2018-05-09T20:53:51.600Z,22.00
2018-05-09T20:56:17.825Z,22.00
2018-05-09T20:58:44.057Z,22.00
2018-05-09T21:01:10.297Z,22.00
2018-05-09T21:03:36.537Z,22.00
2018-05-09T21:06:02.821Z,22.00
2018-05-09T21:08:29.806Z,22.00
2018-05-09T21:10:56.983Z,22.00
2018-05-09T21:13:23.374Z,22.00
2018-05-09T21:15:49.649Z,22.00
2018-05-09T21:18:15.881Z,22.00
2018-05-09T21:20:42.164Z,22.00
2018-05-09T21:23:08.385Z,22.00
2018-05-09T21:25:34.636Z,22.00
2018-05-09T21:28:01.666Z,22.00
2018-05-09T21:30:27.904Z,22.00
2018-05-09T21:32:54.144Z,22.00
2018-05-09T21:35:20.443Z,22.00
2018-05-09T21:37:46.664Z,22.00
2018-05-09T21:40:12.885Z,22.00
2018-05-09T21:42:39.177Z,22.00
2018-05-09T21:45:05.408Z,22.00
2018-05-09T21:47:31.667Z,22.00
2018-05-09T21:49:57.925Z,22.00
2018-05-09T21:52:24.156Z,22.00
2018-05-09T21:54:50.417Z,22.00
2018-05-09T21:57:16.659Z,22.00
2018-05-09T21:59:42.877Z,22.00
2018-05-09T22:02:09.128Z,22.00
2018-05-09T22:04:35.543Z,22.00
2018-05-09T22:07:01.848Z,22.00
2018-05-09T22:09:28.096Z,22.00
2018-05-09T22:11:55.104Z,21.90
2018-05-09T22:14:21.344Z,21.90
2018-05-09T22:16:47.946Z,22.00
2018-05-09T22:19:14.224Z,21.90
2018-05-09T22:21:40.460Z,22.00
2018-05-09T22:24:07.452Z,22.00
2018-05-09T22:26:33.701Z,21.90
2018-05-09T22:29:00.328Z,22.00
2018-05-09T22:31:26.594Z,21.90
2018-05-09T22:33:52.845Z,21.90
2018-05-09T22:36:19.082Z,21.90
2018-05-09T22:38:45.660Z,21.90
2018-05-09T22:41:11.882Z,21.90
2018-05-09T22:43:38.146Z,21.90
2018-05-09T22:46:04.383Z,21.90
2018-05-09T22:48:31.752Z,21.90
2018-05-09T22:50:57.996Z,21.90
2018-05-09T22:53:24.213Z,21.90
2018-05-09T22:55:50.504Z,21.90
2018-05-09T22:58:16.781Z,21.90
2018-05-09T23:00:43.036Z,21.90
2018-05-09T23:03:09.260Z,21.90
2018-05-09T23:05:35.825Z,21.90
2018-05-09T23:08:02.096Z,21.90
2018-05-09T23:10:28.694Z,21.90
2018-05-09T23:12:55.544Z,21.90
2018-05-09T23:15:21.984Z,21.90
2018-05-09T23:17:49.014Z,21.90
2018-05-09T23:20:16.329Z,21.90
2018-05-09T23:22:42.575Z,21.90
2018-05-09T23:25:08.801Z,21.90
2018-05-09T23:27:35.037Z,21.90
2018-05-09T23:30:01.279Z,21.90
2018-05-09T23:32:27.521Z,21.90
2018-05-09T23:34:53.752Z,21.90
2018-05-09T23:37:19.991Z,21.90
2018-05-09T23:39:46.213Z,21.90
2018-05-09T23:42:12.436Z,21.90
2018-05-09T23:44:38.692Z,21.90
2018-05-09T23:47:04.917Z,21.90
2018-05-09T23:49:31.149Z,21.90
2018-05-09T23:51:57.376Z,21.90
2018-05-09T23:54:23.633Z,21.90
2018-05-09T23:56:49.897Z,21.90
2018-05-09T23:59:16.116Z,21.90
